Time;durP1;ratioP1;P1;durP2;ratioP2;P2;SDS_P1;SDS_P2;PMS_P1;PMS_P2;Temp;Humidity;BMP_temperature;BMP_pressure;BME280_temperature;BME280_humidity;BME280_pressure;Samples;Min_cycle;Max_cycle;Signal;HPM_P1;HPM_P2
2023/02/21 02:13:59;;;;;;;35.60;12.82;;;8.50;99.90;;;;;;5016341;28;20080;-73
2023/02/21 02:17:03;;;;;;;40.15;14.43;;;8.50;99.90;;;;;;5016254;28;20053;-72
2023/02/21 02:19:52;;;;;;;35.90;13.48;;;8.50;99.90;;;;;;4955580;28;20027;-72
2023/02/21 02:22:31;;;;;;;40.58;15.70;;;8.50;99.90;;;;;;5014840;28;20049;-73
2023/02/21 02:25:33;;;;;;;42.33;15.05;;;8.50;99.90;;;;;;5016312;28;20365;-73
2023/02/21 02:28:36;;;;;;;36.10;14.38;;;8.50;99.90;;;;;;5016105;28;20081;-73
2023/02/21 02:31:05;;;;;;;36.78;12.70;;;8.50;99.90;;;;;;5014772;28;20536;-73
2023/02/21 02:34:00;;;;;;;44.53;15.38;;;8.60;99.90;;;;;;5014613;28;20033;-73
2023/02/21 02:36:43;;;;;;;39.58;15.52;;;8.60;99.90;;;;;;5015826;28;20026;-73
2023/02/21 02:39:23;;;;;;;46.83;17.63;;;8.50;99.90;;;;;;5015311;28;20076;-74
2023/02/21 02:42:18;;;;;;;44.45;15.82;;;8.50;99.90;;;;;;5015705;28;20381;-73
2023/02/21 02:45:04;;;;;;;41.38;16.73;;;8.50;99.90;;;;;;5016076;28;20034;-73
2023/02/21 02:47:35;;;;;;;51.33;19.10;;;8.50;99.90;;;;;;5014500;28;20037;-73
2023/02/21 02:50:02;;;;;;;49.70;17.90;;;8.50;99.90;;;;;;5014493;28;20477;-73
2023/02/21 02:52:28;;;;;;;46.70;18.08;;;8.50;99.90;;;;;;5015586;28;20029;-73
2023/02/21 02:55:01;;;;;;;51.38;18.67;;;8.50;99.90;;;;;;5014211;28;20099;-73
2023/02/21 02:57:37;;;;;;;53.00;18.00;;;8.50;99.90;;;;;;5015699;28;20025;-73
2023/02/21 03:00:04;;;;;;;51.35;17.48;;;8.50;99.90;;;;;;5016058;28;20100;-73
2023/02/21 03:02:57;;;;;;;51.55;18.48;;;8.50;99.90;;;;;;5015208;28;20036;-73
2023/02/21 03:05:52;;;;;;;54.38;19.52;;;8.50;99.90;;;;;;5015549;28;20018;-73
2023/02/21 03:08:37;;;;;;;46.92;16.95;;;8.50;99.90;;;;;;4995159;28;20030;-73
2023/02/21 03:11:09;;;;;;;52.20;18.85;;;8.50;99.90;;;;;;4994302;28;20027;-74
2023/02/21 03:13:47;;;;;;;56.00;18.38;;;8.40;99.90;;;;;;4994382;28;20081;-73
2023/02/21 03:16:25;;;;;;;46.53;16.63;;;8.40;99.90;;;;;;4995767;28;20057;-73
2023/02/21 03:18:56;;;;;;;48.03;17.60;;;8.40;99.90;;;;;;4995821;28;20023;-73
2023/02/21 03:21:33;;;;;;;56.28;18.65;;;8.40;99.90;;;;;;4995491;28;20042;-73
2023/02/21 03:24:01;;;;;;;47.95;18.30;;;8.40;99.90;;;;;;4994201;28;20031;-73
2023/02/21 03:26:31;;;;;;;49.38;17.90;;;8.40;99.90;;;;;;4995702;28;20458;-73
2023/02/21 03:28:57;;;;;;;46.92;18.02;;;8.40;99.90;;;;;;4995504;28;20022;-73
2023/02/21 03:31:28;;;;;;;53.10;19.20;;;8.50;99.90;;;;;;4995306;28;20026;-73
2023/02/21 03:33:54;;;;;;;52.00;19.52;;;8.50;99.90;;;;;;4995344;28;20034;-73
2023/02/21 03:36:21;;;;;;;46.33;17.33;;;8.50;99.90;;;;;;4994006;28;20077;-73
2023/02/21 03:38:46;;;;;;;55.75;18.92;;;8.50;99.90;;;;;;4994308;28;20025;-73
2023/02/21 03:41:13;;;;;;;57.25;20.35;;;8.40;99.90;;;;;;4995170;28;20030;-73
2023/02/21 03:43:39;;;;;;;48.85;18.90;;;8.40;99.90;;;;;;4995112;28;20485;-74
2023/02/21 03:46:04;;;;;;;56.28;18.15;;;8.40;99.90;;;;;;4995699;28;20073;-73
2023/02/21 03:48:30;;;;;;;47.20;18.45;;;8.40;99.90;;;;;;4993832;28;20026;-73
2023/02/21 03:50:56;;;;;;;49.72;19.00;;;8.70;99.90;;;;;;4994877;28;20363;-73
2023/02/21 03:53:21;;;;;;;55.50;18.90;;;8.50;99.90;;;;;;4993659;28;20390;-73
2023/02/21 03:55:47;;;;;;;54.72;19.75;;;8.50;99.90;;;;;;4993460;28;20034;-73
2023/02/21 03:58:12;;;;;;;48.30;18.80;;;8.50;99.90;;;;;;4993597;28;20029;-73
2023/02/21 04:00:38;;;;;;;50.20;19.40;;;8.50;99.90;;;;;;4994719;28;20032;-73
2023/02/21 04:03:03;;;;;;;46.08;18.15;;;8.50;99.90;;;;;;4994899;28;20081;-73
2023/02/21 04:05:29;;;;;;;47.67;19.80;;;8.50;99.90;;;;;;4994770;28;20101;-73
2023/02/21 04:07:54;;;;;;;58.28;18.48;;;8.50;99.90;;;;;;4994767;28;20104;-73
2023/02/21 04:10:22;;;;;;;56.85;18.92;;;8.50;99.90;;;;;;4994578;28;20421;-73
2023/02/21 04:12:48;;;;;;;45.00;18.90;;;8.50;99.90;;;;;;4994460;28;20038;-73
2023/02/21 04:15:14;;;;;;;61.67;20.08;;;8.50;99.90;;;;;;4994666;28;20025;-73
2023/02/21 04:17:39;;;;;;;53.90;19.65;;;8.50;99.90;;;;;;4993217;28;20027;-73
2023/02/21 04:20:05;;;;;;;54.22;19.90;;;8.40;99.90;;;;;;4994050;28;20516;-73
2023/02/21 04:22:31;;;;;;;56.25;19.35;;;8.40;99.90;;;;;;4994513;28;20023;-73
2023/02/21 04:24:56;;;;;;;54.53;18.35;;;8.40;99.90;;;;;;4993286;28;20021;-74
2023/02/21 04:27:22;;;;;;;60.40;21.80;;;8.40;99.90;;;;;;4993262;28;20025;-73
2023/02/21 04:29:48;;;;;;;59.95;19.67;;;8.70;99.90;;;;;;4994215;28;20034;-73
2023/02/21 04:32:13;;;;;;;62.67;21.30;;;8.40;99.90;;;;;;4994294;28;20030;-73
2023/02/21 04:34:39;;;;;;;54.58;19.60;;;8.40;99.90;;;;;;4994221;28;20030;-73
2023/02/21 04:37:04;;;;;;;56.97;20.63;;;8.40;99.90;;;;;;4993003;28;20014;-73
2023/02/21 04:39:30;;;;;;;59.35;21.10;;;8.30;99.90;;;;;;4994371;28;20060;-73
2023/02/21 04:41:55;;;;;;;61.70;21.80;;;8.30;99.90;;;;;;4993941;28;20389;-73
2023/02/21 04:44:21;;;;;;;59.80;20.13;;;8.40;99.90;;;;;;4994156;28;20019;-73
2023/02/21 04:46:47;;;;;;;56.90;21.17;;;8.40;99.90;;;;;;4994102;28;20026;-73
2023/02/21 04:49:12;;;;;;;57.42;21.02;;;8.40;99.90;;;;;;4992780;28;20050;-74
2023/02/21 04:51:38;;;;;;;65.00;21.55;;;8.40;99.90;;;;;;4993981;28;20038;-73
2023/02/21 04:54:04;;;;;;;68.93;23.48;;;8.30;99.90;;;;;;4992738;28;20022;-73
2023/02/21 04:56:31;;;;;;;61.20;22.77;;;8.40;99.90;;;;;;4992650;28;20405;-73
2023/02/21 04:58:57;;;;;;;64.00;20.77;;;8.40;99.90;;;;;;4993888;28;20171;-74
2023/02/21 05:01:27;;;;;;;57.28;19.77;;;8.40;99.90;;;;;;4992673;28;20026;-73
2023/02/21 05:03:52;;;;;;;64.18;22.20;;;8.40;99.90;;;;;;4993993;28;20031;-73
2023/02/21 05:06:23;;;;;;;58.13;22.05;;;8.40;99.90;;;;;;4994031;28;20026;-73
2023/02/21 05:08:49;;;;;;;64.55;21.95;;;8.40;99.90;;;;;;4992732;28;20026;-73
2023/02/21 05:11:17;;;;;;;66.75;21.83;;;8.40;99.90;;;;;;4992621;28;20117;-73
2023/02/21 05:13:43;;;;;;;73.75;23.00;;;8.30;99.90;;;;;;4992312;28;20026;-73
2023/02/21 05:16:08;;;;;;;67.10;22.58;;;8.40;99.90;;;;;;4993980;28;20053;-73
2023/02/21 05:18:36;;;;;;;72.38;24.27;;;8.30;99.90;;;;;;4992647;28;20053;-73
2023/02/21 05:21:02;;;;;;;66.68;22.20;;;8.40;99.90;;;;;;4992526;28;20126;-73
2023/02/21 05:23:34;;;;;;;75.88;24.13;;;8.30;99.90;;;;;;4992555;28;20037;-73
2023/02/21 05:26:06;;;;;;;67.70;22.98;;;8.30;99.90;;;;;;4993789;28;20065;-73
2023/02/21 05:28:33;;;;;;;77.35;23.42;;;8.50;99.90;;;;;;4992608;28;20053;-73
2023/02/21 05:30:58;;;;;;;73.25;22.42;;;8.30;99.90;;;;;;4993734;28;20037;-73
2023/02/21 05:33:25;;;;;;;71.45;22.70;;;8.30;99.90;;;;;;4997544;28;20018;-73
2023/02/21 05:35:50;;;;;;;73.35;22.95;;;8.40;99.90;;;;;;4997375;28;20029;-73
2023/02/21 05:38:18;;;;;;;70.13;23.70;;;8.30;99.90;;;;;;4997500;28;20015;-73
2023/02/21 05:40:43;;;;;;;74.68;22.42;;;8.30;99.90;;;;;;4997450;28;20101;-72
2023/02/21 05:43:09;;;;;;;76.45;23.00;;;8.30;99.90;;;;;;4997423;28;20106;-73
2023/02/21 05:45:35;;;;;;;70.70;22.10;;;8.30;99.90;;;;;;4997354;28;20034;-73
2023/02/21 05:48:01;;;;;;;71.43;22.30;;;8.40;99.90;;;;;;4997237;28;20077;-73
2023/02/21 05:50:28;;;;;;;78.05;24.63;;;8.30;99.90;;;;;;4996708;28;20023;-73
2023/02/21 05:52:54;;;;;;;76.40;23.38;;;8.40;99.90;;;;;;4996131;28;20019;-73
2023/02/21 05:55:20;;;;;;;67.00;21.48;;;8.40;99.90;;;;;;4997521;28;20076;-73
2023/02/21 05:57:45;;;;;;;66.07;21.60;;;8.30;99.90;;;;;;4997207;28;20018;-73
2023/02/21 06:00:29;;;;;;;75.90;25.45;;;8.30;99.90;;;;;;4995751;28;20552;-73
2023/02/21 06:02:56;;;;;;;71.20;22.13;;;8.40;99.90;;;;;;4995427;28;20088;-73
2023/02/21 06:05:22;;;;;;;67.88;24.55;;;8.30;99.90;;;;;;4995689;28;20157;-73
2023/02/21 06:07:48;;;;;;;74.15;21.73;;;8.40;99.90;;;;;;4995656;28;20027;-74
2023/02/21 06:10:15;;;;;;;74.25;22.45;;;8.40;99.90;;;;;;4995669;28;20033;-73
2023/02/21 06:12:41;;;;;;;70.00;23.13;;;8.40;99.90;;;;;;4996668;28;20026;-73
2023/02/21 06:15:07;;;;;;;74.53;23.20;;;8.90;99.90;;;;;;4996837;28;20548;-73
2023/02/21 06:17:35;;;;;;;71.00;22.83;;;8.30;99.90;;;;;;4996898;28;20027;-74
2023/02/21 06:20:01;;;;;;;64.75;21.13;;;8.90;99.90;;;;;;4995318;28;20026;-73
2023/02/21 06:22:26;;;;;;;78.55;26.58;;;8.40;99.90;;;;;;4995306;28;20027;-73
2023/02/21 06:24:52;;;;;;;69.63;23.70;;;8.40;99.90;;;;;;4995140;28;20125;-73
2023/02/21 06:27:17;;;;;;;80.78;23.73;;;8.40;99.90;;;;;;4995192;28;20029;-73
2023/02/21 06:29:44;;;;;;;72.38;22.45;;;8.60;99.90;;;;;;4995609;28;20134;-73
2023/02/21 06:32:12;;;;;;;74.68;24.02;;;8.40;99.90;;;;;;4996740;28;20098;-74
2023/02/21 06:34:38;;;;;;;77.13;24.15;;;8.40;99.90;;;;;;4995457;28;20050;-74
2023/02/21 06:37:04;;;;;;;80.30;25.42;;;8.40;99.90;;;;;;4997088;28;20406;-74
2023/02/21 06:39:29;;;;;;;80.68;23.38;;;8.40;99.90;;;;;;4996232;28;20026;-74
2023/02/21 06:41:55;;;;;;;75.97;23.98;;;8.40;99.90;;;;;;4995679;28;20482;-74
2023/02/21 06:44:21;;;;;;;92.60;25.50;;;8.50;99.90;;;;;;4996117;28;20034;-74
2023/02/21 06:46:49;;;;;;;75.50;23.95;;;8.40;99.90;;;;;;4995161;28;20563;-74
2023/02/21 06:49:15;;;;;;;81.30;25.67;;;8.40;99.90;;;;;;4996453;28;20036;-74
2023/02/21 06:51:41;;;;;;;76.47;25.02;;;8.40;99.90;;;;;;4996217;28;20066;-73
2023/02/21 06:54:07;;;;;;;99.05;26.48;;;8.40;99.90;;;;;;4994791;28;20026;-74
2023/02/21 06:56:33;;;;;;;83.05;25.67;;;8.40;99.90;;;;;;5021219;23;20138;-76
2023/02/21 06:58:59;;;;;;;81.70;26.33;;;8.40;99.90;;;;;;5015840;28;20508;-76
2023/02/21 07:01:28;;;;;;;81.35;25.88;;;8.40;99.90;;;;;;5014221;28;20029;-76
2023/02/21 07:03:56;;;;;;;87.40;25.38;;;8.50;99.90;;;;;;5014334;28;20072;-76
2023/02/21 07:06:21;;;;;;;80.03;25.42;;;8.50;99.90;;;;;;5014202;28;20030;-76
2023/02/21 07:08:47;;;;;;;80.80;25.08;;;8.40;99.90;;;;;;5014287;28;20028;-76
2023/02/21 07:11:14;;;;;;;77.00;24.02;;;8.40;99.90;;;;;;5014512;28;20132;-76
2023/02/21 07:13:40;;;;;;;86.47;25.50;;;8.40;99.90;;;;;;5013989;28;20041;-76
2023/02/21 07:16:06;;;;;;;85.55;25.65;;;8.40;99.90;;;;;;5016208;28;20488;-76
2023/02/21 07:18:31;;;;;;;80.07;25.27;;;8.40;99.90;;;;;;5015682;28;20021;-74
2023/02/21 07:20:57;;;;;;;92.50;26.40;;;8.40;99.90;;;;;;5015300;28;20092;-76
2023/02/21 07:23:23;;;;;;;78.18;25.80;;;8.40;99.90;;;;;;5015355;28;20034;-77
2023/02/21 07:25:48;;;;;;;91.10;27.02;;;8.40;99.90;;;;;;5014113;28;20053;-75
2023/02/21 07:28:14;;;;;;;96.22;27.27;;;8.50;99.90;;;;;;5014358;28;20025;-75
2023/02/21 07:30:40;;;;;;;98.68;26.63;;;8.50;99.90;;;;;;5013693;28;20026;-75
2023/02/21 07:33:05;;;;;;;89.05;25.80;;;8.40;99.90;;;;;;5013857;28;20153;-75
2023/02/21 07:35:31;;;;;;;83.93;26.00;;;8.50;99.90;;;;;;5014721;28;20469;-74
2023/02/21 07:37:56;;;;;;;86.05;25.90;;;8.50;99.90;;;;;;5013402;28;20072;-75
2023/02/21 07:40:22;;;;;;;102.50;28.13;;;8.60;99.90;;;;;;5015130;28;20029;-74
2023/02/21 07:42:48;;;;;;;82.50;25.48;;;8.50;99.90;;;;;;5013474;28;20045;-74
2023/02/21 07:45:14;;;;;;;87.18;27.88;;;8.50;99.90;;;;;;5014729;28;20026;-74
2023/02/21 07:47:42;;;;;;;90.95;26.88;;;8.50;99.90;;;;;;5013454;28;20028;-74
2023/02/21 07:50:08;;;;;;;94.10;28.13;;;8.50;99.90;;;;;;5014984;28;20026;-74
2023/02/21 07:52:34;;;;;;;94.45;27.33;;;8.50;99.90;;;;;;5014590;28;20022;-75
2023/02/21 07:54:59;;;;;;;87.78;27.30;;;8.50;99.90;;;;;;5012848;28;20040;-75
2023/02/21 07:57:25;;;;;;;91.13;28.17;;;8.50;99.90;;;;;;5013325;28;20488;-75
2023/02/21 07:59:50;;;;;;;99.03;28.20;;;8.40;99.90;;;;;;5013376;28;20085;-75
2023/02/21 08:02:16;;;;;;;92.85;26.15;;;8.40;99.90;;;;;;5013206;28;20018;-74
2023/02/21 08:04:42;;;;;;;92.60;27.48;;;8.40;99.90;;;;;;5014457;28;20101;-75
2023/02/21 08:07:07;;;;;;;101.30;28.60;;;8.40;99.90;;;;;;5014723;28;20520;-74
2023/02/21 08:09:34;;;;;;;92.60;27.08;;;8.50;99.90;;;;;;5012820;28;20503;-75
2023/02/21 08:11:59;;;;;;;98.32;28.45;;;8.50;99.90;;;;;;5012850;28;20080;-75
2023/02/21 08:14:25;;;;;;;79.15;25.95;;;8.40;99.90;;;;;;5014144;28;20115;-75
2023/02/21 08:16:51;;;;;;;103.80;28.85;;;8.40;99.90;;;;;;5015561;28;20025;-75
2023/02/21 08:19:16;;;;;;;90.80;27.67;;;8.40;99.90;;;;;;5014805;28;20022;-75
2023/02/21 08:21:46;;;;;;;101.18;28.70;;;8.40;99.90;;;;;;5014460;28;20100;-75
2023/02/21 08:24:12;;;;;;;106.68;27.50;;;8.40;99.90;;;;;;5015077;28;20026;-74
2023/02/21 08:26:39;;;;;;;107.97;29.25;;;9.00;99.90;;;;;;5015178;28;20045;-74
2023/02/21 08:29:05;;;;;;;110.60;30.40;;;8.50;99.90;;;;;;5013894;28;20392;-74
2023/02/21 08:31:37;;;;;;;100.43;29.38;;;8.50;99.90;;;;;;5015564;28;20026;-74
2023/02/21 08:34:03;;;;;;;105.80;30.73;;;8.50;99.90;;;;;;5013990;28;20125;-75
2023/02/21 08:36:34;;;;;;;94.97;27.67;;;8.50;99.90;;;;;;5015214;28;20025;-74
2023/02/21 08:39:00;;;;;;;109.90;29.08;;;8.50;99.90;;;;;;5015075;28;20033;-74
2023/02/21 08:41:35;;;;;;;96.93;27.27;;;8.60;99.90;;;;;;5013978;28;20014;-74
2023/02/21 08:44:01;;;;;;;86.32;25.58;;;8.50;99.90;;;;;;5013929;28;20061;-74
2023/02/21 08:46:26;;;;;;;98.47;28.92;;;8.50;99.90;;;;;;5014910;28;20491;-74
2023/02/21 08:48:52;;;;;;;87.72;26.10;;;9.00;99.90;;;;;;5015488;28;20376;-75
2023/02/21 08:51:17;;;;;;;92.03;26.80;;;8.50;99.90;;;;;;5013443;28;20524;-74
2023/02/21 08:53:43;;;;;;;90.05;26.63;;;8.50;99.90;;;;;;5015662;28;20026;-74
2023/02/21 08:56:10;;;;;;;97.00;26.73;;;8.50;99.90;;;;;;5012868;28;20026;-74
2023/02/21 08:58:35;;;;;;;89.97;24.92;;;8.50;99.90;;;;;;5013579;28;20011;-74
2023/02/21 09:01:01;;;;;;;102.78;28.75;;;8.50;99.90;;;;;;5013519;28;20021;-74
2023/02/21 09:03:26;;;;;;;108.53;26.77;;;8.50;99.90;;;;;;5014603;28;20022;-74
2023/02/21 09:05:52;;;;;;;90.15;24.35;;;8.50;99.90;;;;;;5016206;28;20550;-74
2023/02/21 09:08:19;;;;;;;94.55;25.38;;;8.50;99.90;;;;;;5017400;28;20018;-74
2023/02/21 09:10:46;;;;;;;89.22;25.27;;;8.50;99.90;;;;;;5018785;28;20033;-75
2023/02/21 09:13:12;;;;;;;85.65;24.30;;;8.50;99.90;;;;;;5017196;28;20453;-74
2023/02/21 09:15:37;;;;;;;104.35;27.65;;;8.80;99.90;;;;;;5018593;28;20050;-75
2023/02/21 09:18:03;;;;;;;89.15;26.25;;;8.50;99.90;;;;;;5017519;28;20050;-75
2023/02/21 09:20:28;;;;;;;101.00;26.15;;;8.60;99.90;;;;;;5016987;28;20025;-75
2023/02/21 09:22:54;;;;;;;91.50;25.15;;;8.60;99.90;;;;;;5017264;28;20018;-75
2023/02/21 09:25:23;;;;;;;96.20;26.08;;;8.60;99.90;;;;;;5018346;28;20041;-75
2023/02/21 09:27:49;;;;;;;;;;;8.60;99.90;;;;;;5018333;28;20105;-74
2023/02/21 09:30:22;;;;;;;90.07;25.90;;;8.60;99.90;;;;;;5017453;28;19945;-75
2023/02/21 09:32:49;;;;;;;98.15;25.73;;;8.60;99.90;;;;;;5017209;28;20072;-74
2023/02/21 09:35:15;;;;;;;94.30;23.23;;;8.60;99.90;;;;;;5017263;28;20024;-74
2023/02/21 09:37:41;;;;;;;87.75;24.98;;;8.60;99.90;;;;;;5017282;28;20069;-75
2023/02/21 09:40:32;;;;;;;87.22;24.65;;;8.60;99.90;;;;;;5018333;28;20026;-75
2023/02/21 09:43:01;;;;;;;82.90;23.55;;;8.60;99.90;;;;;;5017265;28;20087;-74
2023/02/21 09:45:32;;;;;;;93.97;23.60;;;8.60;99.90;;;;;;5017062;28;20022;-74
2023/02/21 09:48:00;;;;;;;93.85;25.73;;;8.70;99.90;;;;;;5017510;28;20010;-74
2023/02/21 09:50:32;;;;;;;97.30;24.98;;;8.70;99.90;;;;;;5017416;28;20491;-74
2023/02/21 09:52:59;;;;;;;89.03;25.63;;;8.70;99.90;;;;;;5017143;28;20029;-74
2023/02/21 09:55:36;;;;;;;85.55;24.65;;;8.70;99.90;;;;;;5015489;28;20041;-74
2023/02/21 09:58:02;;;;;;;84.68;22.65;;;8.80;99.90;;;;;;5015728;28;20389;-74
2023/02/21 10:00:33;;;;;;;92.32;25.33;;;8.80;99.90;;;;;;5016649;28;20046;-74
2023/02/21 10:03:20;;;;;;;85.68;25.27;;;8.80;99.90;;;;;;5015402;28;20103;-74
2023/02/21 10:05:55;;;;;;;80.38;23.55;;;8.80;99.90;;;;;;5016938;28;20041;-74
2023/02/21 10:08:39;;;;;;;93.70;25.75;;;8.80;99.90;;;;;;5016912;28;20389;-74
2023/02/21 10:11:43;;;;;;;88.47;23.95;;;8.90;99.90;;;;;;5015492;28;20028;-74
2023/02/21 10:14:22;;;;;;;87.78;24.10;;;8.90;99.90;;;;;;4975727;28;20596;-74
2023/02/21 10:17:10;;;;;;;78.53;25.45;;;8.90;99.90;;;;;;4976152;28;20111;-75
2023/02/21 10:19:42;;;;;;;83.63;22.30;;;8.90;99.90;;;;;;4998398;28;20030;-74
2023/02/21 10:22:36;;;;;;;82.43;22.58;;;8.90;99.90;;;;;;5016441;28;20022;-74
2023/02/21 10:25:20;;;;;;;91.03;23.90;;;8.90;99.90;;;;;;5015163;28;20492;-74
2023/02/21 10:27:45;;;;;;;92.93;27.27;;;8.90;99.90;;;;;;5016787;28;20024;-74
2023/02/21 10:30:35;;;;;;;86.95;23.95;;;9.30;99.90;;;;;;5014945;28;20037;-74
2023/02/21 10:33:07;;;;;;;82.55;23.73;;;8.90;99.90;;;;;;5014947;28;20026;-74
2023/02/21 10:35:33;;;;;;;80.68;23.25;;;8.90;99.90;;;;;;5016221;28;20506;-74
2023/02/21 10:38:16;;;;;;;81.90;23.80;;;8.90;99.90;;;;;;5016292;28;20014;-74
2023/02/21 10:40:52;;;;;;;87.43;23.40;;;9.00;99.90;;;;;;5015996;28;20053;-74
2023/02/21 10:43:26;;;;;;;91.95;23.60;;;9.00;99.90;;;;;;5014824;28;20026;-74
2023/02/21 10:46:00;;;;;;;90.57;24.80;;;9.00;99.90;;;;;;5015011;28;20057;-74
2023/02/21 10:48:29;;;;;;;101.43;27.80;;;9.10;99.90;;;;;;5014965;28;20454;-74
2023/02/21 10:51:13;;;;;;;88.95;24.77;;;9.20;99.90;;;;;;5016086;28;20015;-74
2023/02/21 10:53:41;;;;;;;85.03;27.10;;;9.10;99.90;;;;;;5016040;28;20076;-74
2023/02/21 10:56:18;;;;;;;97.80;28.50;;;9.00;99.90;;;;;;5015792;28;20401;-74
2023/02/21 10:59:06;;;;;;;95.80;24.80;;;9.10;99.90;;;;;;5014312;28;20029;-74
2023/02/21 11:01:45;;;;;;;94.63;25.58;;;9.20;99.90;;;;;;5014399;28;20402;-74
2023/02/21 11:04:19;;;;;;;98.75;25.35;;;9.20;99.90;;;;;;5014403;28;20030;-74
2023/02/21 11:07:04;;;;;;;105.05;26.95;;;9.20;99.90;;;;;;5014262;28;20026;-74
2023/02/21 11:09:36;;;;;;;93.22;25.02;;;9.20;99.90;;;;;;5015462;28;20132;-74
2023/02/21 11:12:18;;;;;;;104.40;27.05;;;9.30;99.90;;;;;;5014036;28;20022;-74
2023/02/21 11:14:49;;;;;;;98.32;26.60;;;9.30;99.90;;;;;;5015497;28;20061;-74
2023/02/21 11:17:23;;;;;;;94.60;26.15;;;9.20;99.90;;;;;;5014506;28;20026;-74
2023/02/21 11:19:56;;;;;;;95.15;25.02;;;9.20;99.90;;;;;;5014208;28;20072;-74
2023/02/21 11:22:24;;;;;;;93.05;23.88;;;9.20;99.90;;;;;;5014091;28;20047;-74
2023/02/21 11:24:58;;;;;;;106.05;27.48;;;9.20;99.90;;;;;;5015587;28;20030;-74
2023/02/21 11:27:25;;;;;;;96.80;24.35;;;9.20;99.90;;;;;;5014316;28;20026;-74
2023/02/21 11:29:52;;;;;;;87.15;23.40;;;9.20;99.90;;;;;;5014781;28;20102;-74
2023/02/21 11:32:36;;;;;;;83.13;21.80;;;9.20;99.90;;;;;;5015032;28;20049;-74
2023/02/21 11:35:07;;;;;;;90.38;23.75;;;9.20;99.90;;;;;;5013898;28;20036;-74
2023/02/21 11:37:45;;;;;;;100.50;25.27;;;9.20;99.90;;;;;;5014037;28;20112;-74
2023/02/21 11:40:34;;;;;;;89.70;23.10;;;9.10;99.90;;;;;;5016045;28;20516;-74
2023/02/21 11:43:19;;;;;;;105.85;25.65;;;9.20;99.90;;;;;;5014618;28;20034;-74
2023/02/21 11:46:16;;;;;;;104.43;25.45;;;9.00;99.90;;;;;;5015590;28;20030;-74
2023/02/21 11:48:44;;;;;;;96.00;24.00;;;9.00;99.90;;;;;;5015564;28;20022;-74
2023/02/21 11:51:25;;;;;;;89.57;22.50;;;9.00;99.90;;;;;;5014247;28;20025;-74
2023/02/21 11:53:51;;;;;;;96.07;24.52;;;8.90;99.90;;;;;;5015520;28;20484;-74
2023/02/21 11:56:43;;;;;;;98.20;25.80;;;8.90;99.90;;;;;;5014360;28;20058;-74
2023/02/21 11:59:28;;;;;;;104.18;25.88;;;8.90;99.90;;;;;;5013502;28;20161;-74
2023/02/21 12:02:18;;;;;;;104.03;26.60;;;8.90;99.90;;;;;;5014226;28;20022;-74
2023/02/21 12:04:55;;;;;;;108.55;27.05;;;9.00;99.90;;;;;;5015160;28;20030;-74
2023/02/21 12:07:34;;;;;;;85.88;20.83;;;9.00;99.90;;;;;;5016063;28;20026;-74
2023/02/21 12:10:19;;;;;;;86.68;22.55;;;8.90;99.90;;;;;;5015403;28;20416;-74
2023/02/21 12:12:55;;;;;;;90.00;24.25;;;8.80;99.90;;;;;;5014936;28;20030;-74
2023/02/21 12:15:25;;;;;;;87.53;23.90;;;8.90;99.90;;;;;;5014341;28;20100;-74
2023/02/21 12:18:15;;;;;;;88.28;24.90;;;9.00;99.90;;;;;;5015239;28;20025;-74
2023/02/21 12:21:02;;;;;;;91.38;25.38;;;9.00;99.90;;;;;;5014841;28;20029;-73
2023/02/21 12:23:34;;;;;;;89.05;24.77;;;9.10;99.90;;;;;;5014582;28;20029;-74
2023/02/21 12:26:02;;;;;;;85.70;23.58;;;9.10;99.90;;;;;;5013376;28;20034;-74
2023/02/21 12:28:34;;;;;;;84.45;24.73;;;9.10;99.90;;;;;;5013744;28;20030;-74
2023/02/21 12:31:24;;;;;;;86.65;23.58;;;9.10;99.90;;;;;;5013706;28;20045;-74
2023/02/21 12:34:05;;;;;;;69.80;21.90;;;9.20;99.90;;;;;;5014946;28;20117;-74
2023/02/21 12:36:53;;;;;;;74.45;21.90;;;9.10;99.90;;;;;;5013138;28;20503;-74
2023/02/21 12:40:02;;;;;;;59.83;19.15;;;9.10;99.90;;;;;;5013307;28;20022;-74
2023/02/21 12:42:32;;;;;;;65.63;18.38;;;9.20;99.90;;;;;;5013510;28;20036;-74
2023/02/21 12:45:16;;;;;;;65.15;17.70;;;9.20;99.90;;;;;;5013567;28;20029;-74
2023/02/21 12:48:00;;;;;;;54.40;16.65;;;9.10;99.90;;;;;;5015591;28;20030;-74
2023/02/21 12:50:51;;;;;;;44.03;13.00;;;9.10;99.90;;;;;;5015342;28;20022;-74
2023/02/21 12:53:32;;;;;;;41.95;12.68;;;9.10;99.90;;;;;;5013146;28;20092;-74
2023/02/21 12:56:27;;;;;;;42.92;12.90;;;9.10;99.90;;;;;;5013720;28;20029;-74
2023/02/21 12:59:03;;;;;;;39.40;13.25;;;9.10;99.90;;;;;;5007895;28;20034;-74
2023/02/21 13:01:35;;;;;;;46.38;13.60;;;9.00;99.90;;;;;;5014805;28;20109;-74
2023/02/21 13:04:20;;;;;;;42.05;13.18;;;9.40;99.90;;;;;;5013219;28;20032;-74
2023/02/21 13:06:52;;;;;;;44.58;12.18;;;9.10;99.90;;;;;;5014477;28;20106;-74
2023/02/21 13:09:25;;;;;;;49.13;14.48;;;9.10;99.90;;;;;;5014394;28;20088;-74
2023/02/21 13:12:08;;;;;;;39.05;11.48;;;9.10;99.90;;;;;;5014177;28;20491;-74
2023/02/21 13:14:55;;;;;;;35.67;10.85;;;9.10;99.90;;;;;;5014894;28;20025;-74
2023/02/21 13:17:21;;;;;;;30.95;10.07;;;9.10;99.90;;;;;;5015278;28;20093;-74
2023/02/21 13:20:07;;;;;;;28.85;9.52;;;9.10;99.90;;;;;;5014155;28;20033;-74
2023/02/21 13:25:44;;;;;;;23.92;7.88;;;9.10;99.90;;;;;;5014916;28;20118;-74
2023/02/21 13:28:22;;;;;;;30.42;10.00;;;9.10;99.90;;;;;;5014285;28;20081;-74
2023/02/21 13:30:51;;;;;;;33.72;9.93;;;9.20;99.90;;;;;;5014117;28;20397;-74
2023/02/21 13:33:44;;;;;;;35.47;10.70;;;9.20;99.90;;;;;;5012981;28;20021;-74
2023/02/21 13:36:38;;;;;;;38.00;11.43;;;9.30;99.90;;;;;;5013686;28;20030;-75
2023/02/21 13:39:03;;;;;;;31.92;10.90;;;9.40;99.90;;;;;;5013233;28;20075;-75
2023/02/21 13:41:34;;;;;;;36.33;12.00;;;9.40;99.90;;;;;;5014215;28;20048;-75
2023/02/21 13:44:17;;;;;;;31.23;10.50;;;9.50;99.90;;;;;;5013154;28;20065;-75
2023/02/21 13:46:42;;;;;;;32.63;11.48;;;9.40;99.90;;;;;;5014837;28;20030;-75
2023/02/21 13:49:43;;;;;;;28.83;10.18;;;9.40;99.90;;;;;;5012980;28;20080;-75
2023/02/21 13:52:24;;;;;;;29.60;10.27;;;9.50;99.90;;;;;;5015705;28;20484;-75
2023/02/21 13:55:18;;;;;;;26.95;10.40;;;9.40;99.90;;;;;;5016347;28;20392;-75
2023/02/21 13:57:57;;;;;;;24.30;9.48;;;9.40;99.90;;;;;;5017202;28;20026;-75
2023/02/21 14:00:27;;;;;;;27.88;10.13;;;9.40;99.90;;;;;;5017048;28;20531;-75
2023/02/21 14:03:19;;;;;;;34.25;10.52;;;9.40;99.90;;;;;;5016414;28;20133;-75
2023/02/21 14:05:48;;;;;;;32.97;11.15;;;9.30;99.90;;;;;;5011793;28;20034;-75
2023/02/21 14:08:17;;;;;;;36.38;12.40;;;9.20;99.90;;;;;;5016941;28;20018;-75
2023/02/21 14:10:46;;;;;;;32.72;11.45;;;9.20;99.90;;;;;;5018082;28;20048;-75
2023/02/21 14:13:27;;;;;;;34.15;10.10;;;9.20;99.90;;;;;;5016157;28;20445;-75
2023/02/21 14:15:59;;;;;;;30.33;9.55;;;9.20;99.90;;;;;;5016073;28;20113;-75
2023/02/21 14:18:28;;;;;;;28.70;10.15;;;9.20;99.90;;;;;;5017565;28;20018;-75
2023/02/21 14:20:56;;;;;;;23.55;7.63;;;9.20;99.90;;;;;;5016241;28;20025;-75
2023/02/21 14:23:30;;;;;;;22.48;8.10;;;9.10;99.90;;;;;;5017120;28;20018;-75
2023/02/21 14:25:58;;;;;;;18.75;6.80;;;9.10;99.90;;;;;;5015858;28;20030;-76
2023/02/21 14:28:43;;;;;;;;;;;9.20;99.90;;;;;;5017917;28;20033;-75
2023/02/21 14:31:11;;;;;;;13.70;3.78;;;9.10;99.90;;;;;;5017402;28;19905;-75
2023/02/21 14:33:37;;;;;;;9.70;3.50;;;9.20;99.90;;;;;;5017680;28;20026;-75
2023/02/21 14:36:09;;;;;;;11.35;4.80;;;9.20;99.90;;;;;;5016122;28;20023;-76
2023/02/21 14:38:43;;;;;;;17.70;5.63;;;9.20;99.90;;;;;;5013669;28;20018;-75
2023/02/21 14:41:17;;;;;;;16.00;4.65;;;9.10;99.90;;;;;;5015762;28;20026;-75
2023/02/21 14:44:02;;;;;;;10.85;3.85;;;9.10;99.90;;;;;;5016754;28;20435;-75
2023/02/21 14:46:42;;;;;;;9.57;3.88;;;9.10;99.90;;;;;;5015807;28;20389;-75
2023/02/21 14:49:16;;;;;;;7.00;3.40;;;9.10;99.90;;;;;;5017178;28;20037;-76
2023/02/21 14:52:18;;;;;;;8.65;3.10;;;9.10;99.90;;;;;;5013991;28;20088;-75
2023/02/21 14:55:05;;;;;;;10.35;3.25;;;9.00;99.90;;;;;;5013236;28;20438;-75
2023/02/21 14:58:00;;;;;;;9.77;2.90;;;9.00;99.90;;;;;;5016885;28;20026;-75
2023/02/21 15:00:47;;;;;;;8.95;2.75;;;9.00;99.90;;;;;;5016800;28;20497;-75
2023/02/21 15:03:41;;;;;;;9.45;2.90;;;9.00;99.90;;;;;;5013925;28;20026;-75
2023/02/21 15:06:12;;;;;;;6.53;1.95;;;8.90;99.90;;;;;;5016446;28;20404;-75
2023/02/21 15:08:43;;;;;;;9.70;2.63;;;8.90;99.90;;;;;;5017047;28;20026;-75
2023/02/21 15:11:21;;;;;;;10.02;3.10;;;8.90;99.90;;;;;;5016227;28;20030;-75
2023/02/21 15:13:47;;;;;;;6.87;2.90;;;8.80;99.90;;;;;;5014778;28;20469;-76
2023/02/21 15:16:15;;;;;;;5.60;2.58;;;8.80;99.90;;;;;;5013824;28;20026;-75
2023/02/21 15:18:59;;;;;;;7.25;3.13;;;8.70;99.90;;;;;;5016318;28;20157;-75
2023/02/21 15:21:25;;;;;;;10.00;3.00;;;8.70;99.90;;;;;;5015223;28;20495;-75